Wanatah, Indiana
Current Conditions -  °F | °C
As of 5:23 PM on Thursday 27 Nov 2014 (Local Time) from KVPZ Reporting Station
Overcast Overcast  
Wind Chill: 12°   Ceiling: 3000
Heat Index: 23°   Visibility: 9mi
Dew Point: 16°   Wind: 12mph
Humidity: 74%   Direction: 280°W
Pressure: 30.38"   Gusts: NA
Location:  41.43°N, 86.9°W
Report Text: KVPZ 272323Z AUTO 28010KT 9SM OVC030 M05/M09 A3038 RMK AO2 SNE23 P0000 T10501089 TSNO
Loading
Personal Weather Stations






























Interactive Weather Map New forecast layout! Learn more

10-Day Weather Forecast

Advertisements
Track Severe Weather on mobile